Terminal Aerodrome Forecast
Issued by NWS

Home | Current Version | Previous Version | Text Only | Print | Product List | Glossary On
Versions: 1 2 3 4 5 6 7 8 9 10 11 12 13 14 15
000
FTUS45 KABQ 291130
TAFAEG
TAF
KAEG 291130Z 2912/3012 09006KT P6SM VCSH OVC100
     FM291900 13011KT P6SM BKN080
      TEMPO 2922/3002 4SM TSRA OVC030CB
     FM300200 04009KT P6SM VCSH OVC040=

USA.gov is the U.S. government's official web portal to all federal, state and local government web resources and services.